createdAt,value
2017-07-28T00:02:46.950Z,17.78
2017-07-28T00:07:42.784Z,17.87
2017-07-28T00:12:38.747Z,17.85
2017-07-28T00:17:37.904Z,17.85
2017-07-28T00:22:38.381Z,17.78
2017-07-28T00:27:35.646Z,17.83
2017-07-28T00:32:35.574Z,17.86
2017-07-28T00:42:36.194Z,17.92
2017-07-28T00:47:34.002Z,17.85
2017-07-28T00:52:29.529Z,17.78
2017-07-28T00:57:25.778Z,17.68
2017-07-28T01:02:21.650Z,17.74
2017-07-28T01:07:22.501Z,17.52
2017-07-28T01:12:18.393Z,17.51
2017-07-28T01:17:16.743Z,17.57
2017-07-28T01:27:20.504Z,17.68
2017-07-28T01:37:22.501Z,17.46
2017-07-28T01:52:24.748Z,17.01
2017-07-28T02:02:23.623Z,16.76
2017-07-28T02:07:21.482Z,16.76
2017-07-28T02:12:18.988Z,16.75
2017-07-28T02:17:15.610Z,16.69
2017-07-28T02:22:14.208Z,16.54
2017-07-28T02:32:15.698Z,16.46
2017-07-28T02:37:10.787Z,16.42
2017-07-28T02:42:09.149Z,16.38
2017-07-28T02:47:07.198Z,16.36
2017-07-28T02:52:03.942Z,16.38
2017-07-28T02:57:01.838Z,16.50
2017-07-28T03:02:06.581Z,16.39
2017-07-28T03:07:02.930Z,16.43
2017-07-28T03:17:07.809Z,16.35
2017-07-28T03:22:04.251Z,16.51
2017-07-28T03:32:04.632Z,16.41
2017-07-28T03:37:03.927Z,16.46
2017-07-28T03:42:00.041Z,16.57
2017-07-28T03:46:56.414Z,16.53
2017-07-28T03:51:52.191Z,16.53
2017-07-28T03:56:49.032Z,16.58
2017-07-28T04:01:44.948Z,16.50
2017-07-28T04:06:42.230Z,16.49
2017-07-28T04:11:38.476Z,16.32
2017-07-28T04:16:35.066Z,16.38
2017-07-28T04:21:31.278Z,16.50
2017-07-28T04:26:28.231Z,16.57
2017-07-28T04:31:26.477Z,16.65
2017-07-28T04:36:23.077Z,16.65
2017-07-28T04:41:18.788Z,16.41
2017-07-28T04:46:15.445Z,16.50
2017-07-28T04:51:11.185Z,16.51
2017-07-28T04:56:07.286Z,16.49
2017-07-28T05:01:03.055Z,16.65
2017-07-28T05:05:59.436Z,16.61
2017-07-28T05:10:56.320Z,16.53
2017-07-28T05:15:52.518Z,16.51
2017-07-28T05:20:48.555Z,16.75
2017-07-28T05:25:44.630Z,16.72
2017-07-28T05:30:41.710Z,16.69
2017-07-28T05:35:37.557Z,16.60
2017-07-28T05:40:34.945Z,17.08
2017-07-28T05:45:30.697Z,17.02
2017-07-28T05:50:28.329Z,16.91
2017-07-28T05:55:24.209Z,17.04
2017-07-28T06:00:21.601Z,17.08
2017-07-28T06:05:17.345Z,16.97
2017-07-28T06:10:13.377Z,17.22
2017-07-28T06:15:09.470Z,17.31
2017-07-28T06:20:06.558Z,17.49
2017-07-28T06:25:02.338Z,17.63
2017-07-28T06:29:59.274Z,17.82
2017-07-28T06:34:55.493Z,17.85
2017-07-28T06:39:51.685Z,18.01
2017-07-28T06:44:47.613Z,17.76
2017-07-28T06:49:43.768Z,17.70
2017-07-28T06:54:39.908Z,17.67
2017-07-28T06:59:36.100Z,17.74
2017-07-28T07:04:33.025Z,17.79
2017-07-28T07:09:30.195Z,17.85
2017-07-28T07:14:26.936Z,17.82
2017-07-28T07:19:22.575Z,18.03
2017-07-28T07:24:18.567Z,18.07
2017-07-28T07:29:14.881Z,18.25
2017-07-28T07:34:10.618Z,18.07
2017-07-28T07:39:06.528Z,17.98
2017-07-28T07:44:03.760Z,17.90
2017-07-28T07:49:00.485Z,18.11
2017-07-28T07:53:55.619Z,18.05
2017-07-28T07:58:52.528Z,18.10
2017-07-28T08:03:48.812Z,18.43
2017-07-28T08:08:44.995Z,18.56
2017-07-28T08:13:40.743Z,18.53
2017-07-28T08:18:36.598Z,18.47
2017-07-28T08:23:32.609Z,18.22
2017-07-28T08:28:28.683Z,18.49
2017-07-28T08:33:25.440Z,18.49
2017-07-28T08:38:21.185Z,18.41
2017-07-28T08:43:17.115Z,18.59
2017-07-28T08:48:14.776Z,18.75
2017-07-28T08:53:10.581Z,18.90
2017-07-28T08:58:07.453Z,19.02
2017-07-28T09:03:03.229Z,19.08
2017-07-28T09:08:00.044Z,19.08
2017-07-28T09:12:57.500Z,19.55
2017-07-28T09:17:53.617Z,19.41
2017-07-28T09:22:49.995Z,19.54
2017-07-28T09:27:46.613Z,20.00
2017-07-28T09:32:42.152Z,19.88
2017-07-28T09:37:40.801Z,20.25
2017-07-28T09:42:37.732Z,20.19
2017-07-28T09:47:32.884Z,19.76
2017-07-28T09:52:28.522Z,19.92
2017-07-28T09:57:28.544Z,21.03
2017-07-28T10:02:25.681Z,20.95
2017-07-28T10:07:21.684Z,20.52
2017-07-28T10:12:17.966Z,20.84
2017-07-28T10:17:16.277Z,21.42
2017-07-28T10:22:14.039Z,21.76
2017-07-28T10:27:10.080Z,22.00
2017-07-28T10:32:07.474Z,21.95
2017-07-28T10:37:03.299Z,21.73
2017-07-28T10:42:00.039Z,22.18
2017-07-28T10:46:54.172Z,21.64
2017-07-28T10:51:52.733Z,22.25
2017-07-28T10:56:49.166Z,21.82
2017-07-28T11:01:42.492Z,21.24
2017-07-28T11:06:37.380Z,20.93
2017-07-28T11:11:33.933Z,21.00
2017-07-28T11:16:29.697Z,21.02
2017-07-28T11:21:26.728Z,21.27
2017-07-28T11:26:23.486Z,20.99
2017-07-28T11:31:19.443Z,20.84
2017-07-28T11:36:14.617Z,20.48
2017-07-28T11:41:09.861Z,20.34
2017-07-28T11:46:06.507Z,20.26
2017-07-28T11:51:01.815Z,19.29
2017-07-28T11:55:58.728Z,19.21
2017-07-28T12:00:54.432Z,19.09
2017-07-28T12:05:56.336Z,19.52
2017-07-28T12:10:53.266Z,19.66
2017-07-28T12:15:48.946Z,20.03
2017-07-28T12:20:45.213Z,20.18
2017-07-28T12:25:43.156Z,20.19
2017-07-28T12:30:40.202Z,20.29
2017-07-28T12:35:39.502Z,21.22
2017-07-28T12:40:36.904Z,21.69
2017-07-28T12:45:36.463Z,22.06
2017-07-28T12:50:31.712Z,22.07
2017-07-28T12:55:29.506Z,22.41
2017-07-28T13:00:24.888Z,22.08
2017-07-28T13:05:20.235Z,21.60
2017-07-28T13:10:14.852Z,20.99
2017-07-28T13:15:10.129Z,21.09
2017-07-28T13:20:09.045Z,22.25
2017-07-28T13:25:06.324Z,22.43
2017-07-28T13:30:01.367Z,22.14
2017-07-28T13:34:57.638Z,21.77
2017-07-28T13:39:52.448Z,21.48
2017-07-28T13:44:47.777Z,21.42
2017-07-28T13:49:45.551Z,21.00
2017-07-28T13:54:40.692Z,20.66
2017-07-28T13:59:36.182Z,20.51
2017-07-28T14:04:32.078Z,20.52
2017-07-28T14:09:28.190Z,20.52
2017-07-28T14:14:24.183Z,20.29
2017-07-28T14:19:20.683Z,20.51
2017-07-28T14:24:18.156Z,21.02
2017-07-28T14:29:15.131Z,21.00
2017-07-28T14:34:11.755Z,20.85
2017-07-28T14:39:07.912Z,21.02
2017-07-28T14:44:04.329Z,20.96
2017-07-28T14:49:01.583Z,20.97
2017-07-28T14:53:58.258Z,20.90
2017-07-28T14:58:54.936Z,20.97
2017-07-28T15:03:50.761Z,20.97
2017-07-28T15:08:47.673Z,20.96
2017-07-28T15:13:46.200Z,21.02
2017-07-28T15:18:41.606Z,20.96
2017-07-28T15:23:38.382Z,20.99
2017-07-28T15:28:34.217Z,20.93
2017-07-28T15:38:30.757Z,20.99
2017-07-28T15:48:27.408Z,21.09
2017-07-28T15:53:23.751Z,20.93
2017-07-28T15:58:20.795Z,20.90
2017-07-28T16:03:17.331Z,20.84
2017-07-28T16:08:13.159Z,20.81
2017-07-28T16:13:10.274Z,20.70
2017-07-28T16:18:08.068Z,20.70
2017-07-28T16:23:03.947Z,20.69
2017-07-28T16:28:00.003Z,20.67
2017-07-28T16:32:56.953Z,20.44
2017-07-28T16:37:53.587Z,20.50
2017-07-28T16:47:54.078Z,20.37
2017-07-28T16:52:50.858Z,20.47
2017-07-28T16:57:46.691Z,20.59
2017-07-28T17:02:43.623Z,20.63
2017-07-28T17:07:40.300Z,20.51
2017-07-28T17:12:35.951Z,20.34
2017-07-28T17:17:33.051Z,20.40
2017-07-28T17:22:28.652Z,20.34
2017-07-28T17:27:24.474Z,20.32
2017-07-28T17:32:20.596Z,20.28
2017-07-28T17:37:17.562Z,20.31
2017-07-28T17:42:15.320Z,20.25
2017-07-28T17:47:12.781Z,20.18
2017-07-28T17:52:08.238Z,20.14
2017-07-28T17:57:04.606Z,20.13
2017-07-28T18:02:00.637Z,20.21
2017-07-28T18:06:57.734Z,20.21
2017-07-28T18:11:53.286Z,20.19
2017-07-28T18:16:48.998Z,20.24
2017-07-28T18:21:46.140Z,20.14
2017-07-28T18:26:41.930Z,20.13
2017-07-28T18:31:38.144Z,20.16
2017-07-28T18:36:34.009Z,20.11
2017-07-28T18:41:30.001Z,19.92
2017-07-28T18:46:26.024Z,19.96
2017-07-28T18:51:21.855Z,19.82
2017-07-28T18:56:18.650Z,19.92
2017-07-28T19:01:14.410Z,19.86
2017-07-28T19:06:11.308Z,19.79
2017-07-28T19:11:08.434Z,19.91
2017-07-28T19:16:04.427Z,19.81
2017-07-28T19:21:01.886Z,19.82
2017-07-28T19:25:58.366Z,19.71
2017-07-28T19:30:55.155Z,19.71
2017-07-28T19:35:50.585Z,19.67
2017-07-28T19:40:46.449Z,19.66
2017-07-28T19:45:43.136Z,19.62
2017-07-28T19:50:38.662Z,19.63
2017-07-28T19:55:35.799Z,19.59
2017-07-28T20:00:32.617Z,19.63
2017-07-28T20:05:28.244Z,19.64
2017-07-28T20:10:24.413Z,19.64
2017-07-28T20:15:20.289Z,19.63
2017-07-28T20:20:17.129Z,19.54
2017-07-28T20:25:12.914Z,19.62
2017-07-28T20:30:09.874Z,19.67
2017-07-28T20:35:05.453Z,19.62
2017-07-28T20:40:01.442Z,19.52
2017-07-28T20:45:01.201Z,19.48
2017-07-28T20:49:58.802Z,19.45
2017-07-28T20:54:54.323Z,19.36
2017-07-28T20:59:52.708Z,19.33
2017-07-28T21:04:50.686Z,19.24
2017-07-28T21:09:46.333Z,19.15
2017-07-28T21:14:44.109Z,18.90
2017-07-28T21:19:40.787Z,18.75
2017-07-28T21:24:38.295Z,18.40
2017-07-28T21:29:36.182Z,18.40
2017-07-28T21:34:31.302Z,18.23
2017-07-28T21:39:30.262Z,18.18
2017-07-28T21:44:26.908Z,18.10
2017-07-28T21:49:23.001Z,18.03
2017-07-28T21:54:19.909Z,17.80
2017-07-28T21:59:18.948Z,17.80
2017-07-28T22:04:15.287Z,17.76
2017-07-28T22:09:12.482Z,17.79
2017-07-28T22:14:09.329Z,17.82
2017-07-28T22:19:06.357Z,17.72
2017-07-28T22:24:02.883Z,17.78
2017-07-28T22:28:59.050Z,17.87
2017-07-28T22:33:54.681Z,17.82
2017-07-28T22:38:52.093Z,17.95
2017-07-28T22:43:48.806Z,17.98
2017-07-28T22:48:46.733Z,17.98
2017-07-28T22:53:42.424Z,17.89
2017-07-28T22:58:39.336Z,17.95
2017-07-28T23:03:35.221Z,17.95
2017-07-28T23:08:31.261Z,17.95
2017-07-28T23:13:27.958Z,17.97
2017-07-28T23:18:24.918Z,17.92
2017-07-28T23:23:21.533Z,17.87
2017-07-28T23:28:18.526Z,17.94
2017-07-28T23:33:14.272Z,17.98
2017-07-28T23:38:11.290Z,17.92
2017-07-28T23:43:08.077Z,17.92
2017-07-28T23:48:06.544Z,17.89
2017-07-28T23:53:02.085Z,17.83
2017-07-28T23:57:59.035Z,17.83
